createdAt,value
2018-06-02T00:01:06.326Z,18.21
2018-06-02T00:04:09.629Z,18.16
2018-06-02T00:07:12.933Z,18.12
2018-06-02T00:10:16.350Z,18.10
2018-06-02T00:13:19.621Z,18.07
2018-06-02T00:16:23.416Z,18.03
2018-06-02T00:19:26.829Z,18.00
2018-06-02T00:22:32.764Z,17.98
2018-06-02T00:25:36.032Z,17.98
2018-06-02T00:28:39.351Z,18.00
2018-06-02T00:31:42.916Z,18.01
2018-06-02T00:34:47.374Z,18.05
2018-06-02T00:37:50.729Z,18.00
2018-06-02T00:40:54.040Z,17.98
2018-06-02T00:44:01.776Z,18.02
2018-06-02T00:47:05.118Z,18.04
2018-06-02T00:50:08.458Z,17.97
2018-06-02T00:53:13.588Z,17.89
2018-06-02T00:56:16.905Z,17.83
2018-06-02T00:59:20.228Z,17.77
2018-06-02T01:02:23.551Z,17.68
2018-06-02T01:05:27.642Z,17.63
2018-06-02T01:08:31.288Z,17.58
2018-06-02T01:11:34.566Z,17.54
2018-06-02T01:14:37.903Z,17.42
2018-06-02T01:17:41.848Z,17.31
2018-06-02T01:20:45.169Z,17.22
2018-06-02T01:23:48.521Z,17.15
2018-06-02T01:26:52.324Z,17.10
2018-06-02T01:29:55.658Z,17.06
2018-06-02T01:32:59.808Z,17.07
2018-06-02T01:36:03.140Z,17.07
2018-06-02T01:39:06.921Z,17.04
2018-06-02T01:42:10.241Z,17.02
2018-06-02T01:45:13.650Z,16.99
2018-06-02T01:48:17.067Z,16.93
2018-06-02T01:51:21.151Z,16.87
2018-06-02T01:54:24.561Z,16.80
2018-06-02T01:57:29.435Z,16.78
2018-06-02T02:00:32.767Z,16.80
2018-06-02T02:03:36.725Z,16.79
2018-06-02T02:06:40.816Z,16.78
2018-06-02T02:09:45.288Z,16.74
2018-06-02T02:12:48.627Z,16.71
2018-06-02T02:15:52.563Z,16.74
2018-06-02T02:18:55.916Z,16.75
2018-06-02T02:21:59.317Z,16.74
2018-06-02T02:25:02.631Z,16.76
2018-06-02T02:28:05.981Z,16.78
2018-06-02T02:31:09.296Z,16.75
2018-06-02T02:34:12.634Z,16.82
2018-06-02T02:37:15.953Z,16.96
2018-06-02T02:40:20.812Z,16.95
2018-06-02T02:43:24.171Z,16.92
2018-06-02T02:46:28.340Z,16.86
2018-06-02T02:49:32.629Z,16.84
2018-06-02T02:52:36.716Z,16.93
2018-06-02T02:55:40.807Z,17.01
2018-06-02T02:58:44.223Z,16.94
2018-06-02T03:01:49.606Z,16.88
2018-06-02T03:04:52.955Z,16.87
2018-06-02T03:07:56.288Z,16.81
2018-06-02T03:10:59.606Z,16.74
2018-06-02T03:14:02.961Z,16.70
2018-06-02T03:17:07.157Z,16.72
2018-06-02T03:20:12.041Z,16.87
2018-06-02T03:23:15.385Z,17.05
2018-06-02T03:26:18.693Z,17.21
2018-06-02T03:29:22.634Z,17.37
2018-06-02T03:32:25.973Z,17.52
2018-06-02T03:35:29.288Z,17.70
2018-06-02T03:38:32.749Z,17.86
2018-06-02T03:41:36.171Z,18.15
2018-06-02T03:44:40.773Z,18.25
2018-06-02T03:47:44.109Z,18.30
2018-06-02T03:50:47.480Z,18.42
2018-06-02T03:53:50.787Z,18.43
2018-06-02T03:56:54.171Z,18.35
2018-06-02T04:00:00.807Z,18.19
2018-06-02T04:03:04.149Z,18.08
2018-06-02T04:06:07.479Z,17.97
2018-06-02T04:09:11.572Z,17.87
2018-06-02T04:12:14.903Z,17.82
2018-06-02T04:15:18.192Z,17.78
2018-06-02T04:18:21.535Z,17.79
2018-06-02T04:21:24.945Z,17.80
2018-06-02T04:24:28.270Z,17.76
2018-06-02T04:27:32.621Z,17.77
2018-06-02T04:30:35.947Z,17.75
2018-06-02T04:33:39.360Z,17.71
2018-06-02T04:36:43.557Z,17.70
2018-06-02T04:39:46.897Z,17.71
2018-06-02T04:42:51.010Z,17.82
2018-06-02T04:45:55.992Z,17.94
2018-06-02T04:48:59.296Z,18.05
2018-06-02T04:52:02.596Z,18.20
2018-06-02T04:55:05.911Z,18.28
2018-06-02T04:58:12.362Z,18.33
2018-06-02T05:01:15.723Z,18.37
2018-06-02T05:04:19.093Z,18.41
2018-06-02T05:07:25.507Z,18.46
2018-06-02T05:10:28.829Z,18.53
2018-06-02T05:13:32.148Z,18.62
2018-06-02T05:16:42.211Z,18.75
2018-06-02T05:19:46.305Z,18.86
2018-06-02T05:22:51.435Z,18.96
2018-06-02T05:25:54.767Z,19.03
2018-06-02T05:28:58.854Z,19.15
2018-06-02T05:32:03.036Z,19.26
2018-06-02T05:35:06.371Z,19.37
2018-06-02T05:38:09.705Z,19.47
2018-06-02T05:41:13.023Z,19.50
2018-06-02T05:44:16.354Z,19.59
2018-06-02T05:47:19.727Z,19.64
2018-06-02T05:50:23.848Z,19.74
2018-06-02T05:53:27.176Z,19.81
2018-06-02T05:56:31.311Z,19.86
2018-06-02T05:59:34.584Z,19.95
2018-06-02T06:02:37.971Z,20.08
2018-06-02T06:05:41.289Z,20.17
2018-06-02T06:08:46.123Z,20.30
2018-06-02T06:11:50.911Z,20.35
2018-06-02T06:14:54.229Z,20.45
2018-06-02T06:18:00.013Z,20.53
2018-06-02T06:21:03.343Z,20.63
2018-06-02T06:24:06.659Z,20.71
2018-06-02T06:27:10.050Z,20.82
2018-06-02T06:30:13.384Z,20.92
2018-06-02T06:33:17.480Z,20.97
2018-06-02T06:36:20.826Z,21.05
2018-06-02T06:39:24.142Z,21.12
2018-06-02T06:42:27.627Z,21.24
2018-06-02T06:45:31.050Z,21.25
2018-06-02T06:48:34.441Z,21.31
2018-06-02T06:51:37.855Z,21.39
2018-06-02T06:54:41.236Z,21.43
2018-06-02T06:57:45.187Z,21.45
2018-06-02T07:00:49.296Z,21.45
2018-06-02T07:03:53.375Z,21.49
2018-06-02T07:06:58.554Z,21.58
2018-06-02T07:10:02.669Z,21.60
2018-06-02T07:13:06.757Z,21.59
2018-06-02T07:16:12.056Z,21.58
2018-06-02T07:19:15.382Z,21.62
2018-06-02T07:22:19.881Z,21.68
2018-06-02T07:25:23.318Z,21.74
2018-06-02T07:28:26.709Z,21.86
2018-06-02T07:31:30.018Z,22.02
2018-06-02T07:34:34.388Z,22.16
2018-06-02T07:37:37.734Z,22.23
2018-06-02T07:40:41.040Z,22.31
2018-06-02T07:43:44.422Z,22.41
2018-06-02T07:46:47.801Z,22.47
2018-06-02T07:49:51.977Z,22.49
2018-06-02T07:52:55.309Z,22.45
2018-06-02T07:56:01.760Z,22.51
2018-06-02T07:59:05.111Z,22.50
2018-06-02T08:02:08.420Z,22.56
2018-06-02T08:05:11.757Z,22.64
2018-06-02T08:08:15.205Z,22.59
2018-06-02T08:11:18.494Z,22.62
2018-06-02T08:14:22.602Z,22.65
2018-06-02T08:17:26.328Z,22.81
2018-06-02T08:20:30.516Z,22.95
2018-06-02T08:23:33.874Z,23.02
2018-06-02T08:26:37.189Z,23.06
2018-06-02T08:29:40.510Z,23.06
2018-06-02T08:32:44.897Z,23.08
2018-06-02T08:35:48.646Z,23.07
2018-06-02T08:38:51.982Z,23.18
2018-06-02T08:41:55.421Z,23.26
2018-06-02T08:44:59.893Z,23.23
2018-06-02T08:48:03.238Z,23.38
2018-06-02T08:51:07.152Z,23.46
2018-06-02T08:54:10.505Z,23.54
2018-06-02T08:57:13.819Z,23.61
2018-06-02T09:00:17.125Z,23.72
2018-06-02T09:03:21.336Z,23.58
2018-06-02T09:06:24.810Z,23.75
2018-06-02T09:09:28.124Z,23.68
2018-06-02T09:12:31.916Z,23.65
2018-06-02T09:15:35.774Z,23.75
2018-06-02T09:18:39.175Z,23.92
2018-06-02T09:21:42.529Z,24.04
2018-06-02T09:24:46.509Z,24.15
2018-06-02T09:27:50.760Z,24.01
2018-06-02T09:30:54.912Z,24.10
2018-06-02T09:33:58.330Z,24.17
2018-06-02T09:37:02.954Z,24.14
2018-06-02T09:40:07.074Z,24.09
2018-06-02T09:43:11.951Z,23.98
2018-06-02T09:46:15.290Z,24.06
2018-06-02T09:49:19.718Z,24.23
2018-06-02T09:52:23.042Z,24.41
2018-06-02T09:55:29.471Z,24.51
2018-06-02T09:58:33.585Z,24.57
2018-06-02T10:01:37.774Z,24.65
2018-06-02T10:04:41.092Z,24.70
2018-06-02T10:07:44.500Z,24.77
2018-06-02T10:10:47.878Z,24.82
2018-06-02T10:13:51.221Z,24.89
2018-06-02T10:16:55.345Z,24.97
2018-06-02T10:19:58.661Z,25.00
2018-06-02T10:23:02.189Z,25.06
2018-06-02T10:26:05.588Z,25.20
2018-06-02T10:29:08.907Z,25.32
2018-06-02T10:32:13.098Z,25.24
2018-06-02T10:35:16.450Z,25.46
2018-06-02T10:38:19.853Z,25.62
2018-06-02T10:41:29.071Z,25.65
2018-06-02T10:44:32.407Z,25.62
2018-06-02T10:47:35.810Z,25.76
2018-06-02T10:50:39.232Z,25.99
2018-06-02T10:53:42.551Z,25.90
2018-06-02T10:56:48.997Z,25.94
2018-06-02T10:59:52.327Z,25.92
2018-06-02T11:02:56.411Z,25.97
2018-06-02T11:05:59.788Z,26.12
2018-06-02T11:09:03.150Z,26.28
2018-06-02T11:12:07.229Z,26.42
2018-06-02T11:15:10.702Z,26.41
2018-06-02T11:18:14.028Z,26.40
2018-06-02T11:21:18.121Z,26.26
2018-06-02T11:24:21.446Z,26.13
2018-06-02T11:27:25.533Z,26.27
2018-06-02T11:30:29.668Z,26.39
2018-06-02T11:33:33.797Z,26.41
2018-06-02T11:36:37.892Z,26.32
2018-06-02T11:39:41.238Z,26.30
2018-06-02T11:42:44.569Z,26.38
2018-06-02T11:45:47.917Z,26.68
2018-06-02T11:48:51.313Z,26.85
2018-06-02T11:51:54.780Z,26.84
2018-06-02T11:54:58.223Z,26.87
2018-06-02T11:58:01.553Z,26.77
2018-06-02T12:01:05.601Z,26.72
2018-06-02T12:04:08.889Z,26.68
2018-06-02T12:07:13.070Z,26.67
2018-06-02T12:10:16.505Z,26.69
2018-06-02T12:13:20.573Z,26.73
2018-06-02T12:16:24.216Z,26.77
2018-06-02T12:19:28.380Z,26.78
2018-06-02T12:22:31.709Z,26.68
2018-06-02T12:25:35.130Z,26.78
2018-06-02T12:28:40.012Z,26.97
2018-06-02T12:31:43.439Z,27.02
2018-06-02T12:34:47.598Z,26.98
2018-06-02T12:37:50.960Z,26.92
2018-06-02T12:40:55.834Z,26.95
2018-06-02T12:43:59.155Z,27.00
2018-06-02T12:47:02.492Z,27.09
2018-06-02T12:50:05.829Z,27.15
2018-06-02T12:53:10.394Z,27.15
2018-06-02T12:56:13.762Z,27.22
2018-06-02T12:59:17.113Z,27.30
2018-06-02T13:02:21.196Z,27.33
2018-06-02T13:05:24.605Z,27.19
2018-06-02T13:08:28.466Z,27.14
2018-06-02T13:11:31.793Z,27.11
2018-06-02T13:14:35.246Z,27.12
2018-06-02T13:17:38.569Z,27.09
2018-06-02T13:20:43.360Z,27.07
2018-06-02T13:23:47.956Z,27.07
2018-06-02T13:26:51.304Z,27.13
2018-06-02T13:29:54.620Z,27.17
2018-06-02T13:32:57.932Z,27.18
2018-06-02T13:36:01.265Z,27.11
2018-06-02T13:39:04.542Z,27.14
2018-06-02T13:42:08.670Z,27.23
2018-06-02T13:45:13.549Z,27.24
2018-06-02T13:48:16.874Z,27.29
2018-06-02T13:51:21.294Z,27.25
2018-06-02T13:54:24.616Z,27.41
2018-06-02T13:57:28.711Z,27.44
2018-06-02T14:00:33.277Z,27.49
2018-06-02T14:03:36.621Z,27.50
2018-06-02T14:06:39.947Z,27.47
2018-06-02T14:09:43.295Z,27.61
2018-06-02T14:12:46.635Z,27.58
2018-06-02T14:15:49.963Z,27.46
2018-06-02T14:18:54.586Z,27.46
2018-06-02T14:21:58.693Z,27.50
2018-06-02T14:25:02.797Z,27.57
2018-06-02T14:28:06.198Z,27.56
2018-06-02T14:31:10.283Z,27.46
2018-06-02T14:34:13.600Z,27.51
2018-06-02T14:37:16.925Z,27.45
2018-06-02T14:40:20.253Z,27.40
2018-06-02T14:43:24.386Z,27.36
2018-06-02T14:46:27.706Z,27.42
2018-06-02T14:49:31.025Z,27.63
2018-06-02T14:52:35.101Z,27.67
2018-06-02T14:55:41.732Z,27.67
2018-06-02T14:58:45.974Z,27.71
2018-06-02T15:01:49.331Z,27.74
2018-06-02T15:04:53.177Z,27.78
2018-06-02T15:07:56.529Z,28.15
2018-06-02T15:11:00.610Z,28.52
2018-06-02T15:14:03.940Z,28.82
2018-06-02T15:17:08.040Z,29.15
2018-06-02T15:20:11.312Z,29.30
2018-06-02T15:23:15.417Z,29.57
2018-06-02T15:26:21.714Z,29.78
2018-06-02T15:29:25.827Z,30.02
2018-06-02T15:32:29.956Z,29.92
2018-06-02T15:35:34.364Z,29.71
2018-06-02T15:38:38.465Z,29.81
2018-06-02T15:41:41.820Z,30.00
2018-06-02T15:44:45.250Z,30.14
2018-06-02T15:47:48.593Z,29.95
2018-06-02T15:50:52.547Z,29.92
2018-06-02T15:53:55.874Z,29.99
2018-06-02T15:57:00.934Z,30.16
2018-06-02T16:00:04.313Z,29.90
2018-06-02T16:03:08.401Z,29.98
2018-06-02T16:06:11.725Z,30.20
2018-06-02T16:09:15.286Z,30.26
2018-06-02T16:12:18.713Z,30.43
2018-06-02T16:15:22.131Z,30.23
2018-06-02T16:18:26.257Z,30.47
2018-06-02T16:21:29.581Z,30.62
2018-06-02T16:24:35.585Z,30.62
2018-06-02T16:27:39.682Z,30.49
2018-06-02T16:30:44.946Z,30.67
2018-06-02T16:33:48.284Z,30.49
2018-06-02T16:36:51.625Z,30.39
2018-06-02T16:39:56.551Z,30.35
2018-06-02T16:43:00.317Z,30.44
2018-06-02T16:46:03.663Z,30.40
2018-06-02T16:49:07.009Z,30.44
2018-06-02T16:52:10.812Z,30.28
2018-06-02T16:55:14.671Z,30.04
2018-06-02T16:58:19.271Z,29.86
2018-06-02T17:01:23.436Z,29.88
2018-06-02T17:04:27.551Z,29.60
2018-06-02T17:07:31.652Z,29.61
2018-06-02T17:10:34.989Z,29.44
2018-06-02T17:13:38.275Z,28.74
2018-06-02T17:16:41.631Z,28.15
2018-06-02T17:19:45.428Z,27.15
2018-06-02T17:22:48.739Z,26.86
2018-06-02T17:25:52.229Z,26.43
2018-06-02T17:28:55.550Z,26.18
2018-06-02T17:31:58.879Z,25.94
2018-06-02T17:35:03.917Z,25.76
2018-06-02T17:38:07.364Z,25.69
2018-06-02T17:41:11.432Z,25.46
2018-06-02T17:44:14.773Z,25.20
2018-06-02T17:47:18.135Z,25.05
2018-06-02T17:50:21.462Z,24.94
2018-06-02T17:53:24.787Z,24.88
2018-06-02T17:56:29.825Z,24.77
2018-06-02T17:59:33.921Z,24.62
2018-06-02T18:02:37.321Z,24.54
2018-06-02T18:05:50.833Z,24.37
2018-06-02T18:08:54.241Z,24.13
2018-06-02T18:11:57.793Z,24.02
2018-06-02T18:15:05.069Z,23.84
2018-06-02T18:18:08.605Z,23.65
2018-06-02T18:21:11.931Z,23.48
2018-06-02T18:24:15.270Z,23.34
2018-06-02T18:27:18.943Z,23.27
2018-06-02T18:30:24.170Z,23.07
2018-06-02T18:33:27.513Z,22.94
2018-06-02T18:36:37.156Z,22.79
2018-06-02T18:39:40.481Z,22.79
2018-06-02T18:42:43.817Z,22.63
2018-06-02T18:45:48.516Z,22.60
2018-06-02T18:48:51.854Z,22.53
2018-06-02T18:51:55.990Z,22.38
2018-06-02T18:55:04.036Z,22.25
2018-06-02T18:58:07.378Z,22.04
2018-06-02T19:01:13.326Z,22.02
2018-06-02T19:04:17.430Z,21.86
2018-06-02T19:07:20.808Z,21.82
2018-06-02T19:10:24.213Z,21.65
2018-06-02T19:13:27.561Z,21.48
2018-06-02T19:16:33.185Z,21.38
2018-06-02T19:19:37.287Z,21.18
2018-06-02T19:22:40.639Z,21.03
2018-06-02T19:25:43.969Z,20.93
2018-06-02T19:28:49.219Z,20.85
2018-06-02T19:31:52.556Z,20.81
2018-06-02T19:34:58.783Z,20.67
2018-06-02T19:38:02.134Z,20.65
2018-06-02T19:41:05.446Z,20.54
2018-06-02T19:44:08.785Z,20.40
2018-06-02T19:47:13.711Z,20.28
2018-06-02T19:50:17.839Z,20.17
2018-06-02T19:53:23.443Z,20.07
2018-06-02T19:56:26.855Z,20.06
2018-06-02T19:59:30.306Z,20.00
2018-06-02T20:02:33.671Z,19.94
2018-06-02T20:05:39.178Z,19.94
2018-06-02T20:08:42.515Z,19.81
2018-06-02T20:11:46.043Z,19.77
2018-06-02T20:14:49.421Z,19.80
2018-06-02T20:17:52.724Z,19.76
2018-06-02T20:20:57.780Z,19.82
2018-06-02T20:24:01.118Z,19.74
2018-06-02T20:27:06.497Z,19.75
2018-06-02T20:43:09.857Z,19.49
2018-06-02T20:46:13.445Z,19.55
2018-06-02T20:49:16.838Z,19.58
2018-06-02T20:52:20.250Z,19.55
2018-06-02T20:55:23.734Z,19.62
2018-06-02T20:58:27.142Z,19.62
2018-06-02T21:01:30.535Z,19.65
2018-06-02T21:04:33.896Z,19.68
2018-06-02T21:07:37.381Z,19.69
2018-06-02T21:10:40.767Z,19.73
2018-06-02T21:13:45.919Z,19.66
2018-06-02T21:16:49.362Z,19.67
2018-06-02T21:19:52.725Z,19.73
2018-06-02T21:22:56.818Z,19.72
2018-06-02T21:26:00.160Z,19.70
2018-06-02T21:29:03.937Z,19.62
2018-06-02T21:32:07.282Z,19.58
2018-06-02T21:35:10.634Z,19.56
2018-06-02T21:38:14.822Z,19.46
2018-06-02T21:41:18.991Z,19.50
2018-06-02T21:44:22.350Z,19.46
2018-06-02T21:47:25.830Z,19.47
2018-06-02T21:50:30.073Z,19.49
2018-06-02T21:53:33.422Z,19.47
2018-06-02T21:56:38.434Z,19.47
2018-06-02T21:59:41.787Z,19.44
2018-06-02T22:02:45.903Z,19.35
2018-06-02T22:05:50.996Z,19.30
2018-06-02T22:08:54.372Z,19.22
2018-06-02T22:11:58.946Z,19.16
2018-06-02T22:15:02.272Z,19.19
2018-06-02T22:18:05.719Z,19.21
2018-06-02T22:21:09.616Z,19.11
2018-06-02T22:24:13.021Z,19.05
2018-06-02T22:27:16.368Z,18.98
2018-06-02T22:30:19.738Z,18.94
2018-06-02T22:33:23.065Z,18.92
2018-06-02T22:36:26.418Z,18.90
2018-06-02T22:39:30.134Z,18.92
2018-06-02T22:42:34.063Z,18.89
2018-06-02T22:45:38.357Z,18.86
2018-06-02T22:48:42.788Z,18.82
2018-06-02T22:51:58.362Z,18.81
2018-06-02T22:55:01.703Z,18.79
2018-06-02T22:58:05.170Z,18.75
2018-06-02T23:01:11.505Z,18.77
2018-06-02T23:04:15.602Z,18.73
2018-06-02T23:07:18.944Z,18.74
2018-06-02T23:10:22.272Z,18.64
2018-06-02T23:13:27.410Z,18.63
2018-06-02T23:16:30.738Z,18.59
2018-06-02T23:19:34.066Z,18.53
2018-06-02T23:22:41.194Z,18.53
2018-06-02T23:25:45.012Z,18.51
2018-06-02T23:28:48.351Z,18.50
2018-06-02T23:31:51.672Z,18.44
2018-06-02T23:34:56.339Z,18.39
2018-06-02T23:37:59.762Z,18.42
2018-06-02T23:41:03.065Z,18.41
2018-06-02T23:44:07.177Z,18.41
2018-06-02T23:47:10.502Z,18.39
2018-06-02T23:50:15.330Z,18.31
2018-06-02T23:53:19.418Z,18.24
2018-06-02T23:56:22.777Z,18.24
2018-06-02T23:59:27.029Z,18.19
